createdAt,value
2019-03-19T00:01:54.096Z,61.17
2019-03-19T00:04:25.615Z,61.22
2019-03-19T00:06:57.097Z,60.93
2019-03-19T00:09:28.595Z,60.73
2019-03-19T00:12:00.112Z,60.68
2019-03-19T00:14:31.629Z,60.50
2019-03-19T00:17:03.129Z,60.55
2019-03-19T00:19:35.723Z,60.57
2019-03-19T00:22:07.207Z,60.73
2019-03-19T00:24:38.718Z,60.80
2019-03-19T00:27:10.248Z,60.76
2019-03-19T00:29:41.774Z,60.93
2019-03-19T00:32:13.286Z,60.77
2019-03-19T00:34:44.781Z,60.90
2019-03-19T00:37:16.308Z,61.44
2019-03-19T00:39:47.908Z,61.49
2019-03-19T00:42:19.388Z,61.29
2019-03-19T00:44:50.896Z,61.65
2019-03-19T00:47:22.418Z,61.69
2019-03-19T00:49:53.969Z,61.87
2019-03-19T00:52:25.468Z,62.04
2019-03-19T00:54:56.950Z,62.28
2019-03-19T00:57:28.683Z,62.30
2019-03-19T01:00:00.340Z,62.32
2019-03-19T01:02:33.599Z,62.49
2019-03-19T01:05:05.827Z,62.59
2019-03-19T01:07:37.326Z,62.51
2019-03-19T01:10:16.831Z,62.64
2019-03-19T01:12:48.341Z,62.50
2019-03-19T01:15:19.957Z,62.82
2019-03-19T01:17:51.491Z,62.78
2019-03-19T01:20:22.988Z,63.20
2019-03-19T01:22:54.548Z,63.35
2019-03-19T01:25:26.122Z,63.23
2019-03-19T01:27:57.697Z,63.20
2019-03-19T01:30:29.175Z,63.17
2019-03-19T01:33:00.763Z,63.40
2019-03-19T01:35:32.287Z,63.34
2019-03-19T01:38:03.830Z,63.43
2019-03-19T01:40:35.331Z,63.70
2019-03-19T01:43:06.831Z,63.58
2019-03-19T01:45:38.330Z,63.67
2019-03-19T01:48:09.842Z,63.69
2019-03-19T01:50:41.336Z,63.39
2019-03-19T01:53:12.840Z,63.31
2019-03-19T01:55:44.400Z,63.28
2019-03-19T01:58:15.970Z,63.36
2019-03-19T02:00:47.487Z,63.44
2019-03-19T02:03:18.981Z,63.38
2019-03-19T02:05:50.484Z,63.48
2019-03-19T02:08:21.994Z,63.64
2019-03-19T02:10:54.589Z,63.43
2019-03-19T02:13:26.092Z,63.57
2019-03-19T02:15:57.598Z,63.36
2019-03-19T02:18:29.083Z,63.56
2019-03-19T02:21:00.588Z,63.75
2019-03-19T02:23:32.094Z,63.78
2019-03-19T02:26:03.642Z,63.71
2019-03-19T02:28:35.155Z,63.73
2019-03-19T02:31:06.739Z,63.78
2019-03-19T02:33:38.258Z,63.67
2019-03-19T02:36:09.727Z,63.51
2019-03-19T02:38:41.371Z,63.57
2019-03-19T02:41:12.859Z,63.68
2019-03-19T02:43:44.370Z,63.40
2019-03-19T02:46:15.943Z,63.48
2019-03-19T02:48:47.437Z,63.35
2019-03-19T02:51:19.023Z,63.51
2019-03-19T02:53:50.605Z,63.51
2019-03-19T02:56:32.471Z,63.47
2019-03-19T02:58:55.410Z,63.62
2019-03-19T03:01:26.915Z,63.57
2019-03-19T03:03:58.421Z,63.56
2019-03-19T03:06:29.930Z,63.60
2019-03-19T03:09:01.436Z,63.68
2019-03-19T03:11:33.411Z,63.44
2019-03-19T03:14:04.921Z,63.29
2019-03-19T03:16:36.401Z,63.46
2019-03-19T03:19:08.055Z,63.46
2019-03-19T03:21:39.564Z,63.72
2019-03-19T03:24:11.093Z,63.44
2019-03-19T03:26:48.309Z,63.29
2019-03-19T03:29:15.760Z,63.38
2019-03-19T03:31:47.262Z,63.25
2019-03-19T03:34:20.396Z,63.42
2019-03-19T03:36:51.915Z,63.62
2019-03-19T03:39:23.488Z,63.64
2019-03-19T03:41:54.980Z,63.58
2019-03-19T03:44:26.602Z,63.51
2019-03-19T03:46:58.075Z,63.55
2019-03-19T03:49:29.683Z,63.29
2019-03-19T03:52:01.208Z,63.64
2019-03-19T03:54:32.752Z,63.55
2019-03-19T03:57:04.336Z,63.58
2019-03-19T03:59:35.841Z,63.65
2019-03-19T04:02:07.353Z,64.10
2019-03-19T04:04:38.907Z,63.99
2019-03-19T04:07:10.472Z,63.91
2019-03-19T04:09:41.983Z,63.87
2019-03-19T04:12:13.488Z,64.20
2019-03-19T04:14:46.644Z,64.45
2019-03-19T04:17:18.305Z,63.96
2019-03-19T04:19:49.882Z,64.06
2019-03-19T04:22:21.378Z,64.13
2019-03-19T04:24:53.023Z,63.80
2019-03-19T04:27:24.634Z,63.90
2019-03-19T04:29:56.242Z,64.04
2019-03-19T04:32:27.736Z,63.75
2019-03-19T04:34:59.244Z,63.78
2019-03-19T04:37:30.811Z,63.88
2019-03-19T04:40:02.328Z,63.94
2019-03-19T04:42:33.815Z,64.12
2019-03-19T04:45:07.505Z,64.08
2019-03-19T04:47:39.018Z,64.13
2019-03-19T04:50:18.214Z,63.96
2019-03-19T04:52:49.752Z,63.99
2019-03-19T04:55:21.260Z,63.78
2019-03-19T04:57:52.753Z,63.71
2019-03-19T05:00:24.249Z,63.93
2019-03-19T05:02:55.737Z,63.71
2019-03-19T05:05:27.313Z,63.61
2019-03-19T05:07:58.890Z,63.78
2019-03-19T05:10:30.397Z,64.00
2019-03-19T05:13:01.984Z,64.08
2019-03-19T05:15:33.512Z,63.92
2019-03-19T05:18:05.038Z,63.96
2019-03-19T05:20:36.614Z,63.69
2019-03-19T05:23:08.118Z,63.54
2019-03-19T05:25:39.626Z,63.67
2019-03-19T05:28:11.144Z,63.70
2019-03-19T05:30:42.658Z,63.68
2019-03-19T05:33:14.180Z,63.70
2019-03-19T05:35:45.821Z,63.48
2019-03-19T05:38:17.352Z,63.54
2019-03-19T05:40:48.876Z,63.41
2019-03-19T05:43:20.382Z,63.35
2019-03-19T05:45:51.911Z,62.89
2019-03-19T05:48:23.491Z,62.98
2019-03-19T05:50:55.008Z,63.04
2019-03-19T05:53:26.549Z,62.81
2019-03-19T05:55:58.067Z,62.85
2019-03-19T05:58:29.618Z,62.64
2019-03-19T06:01:01.132Z,62.21
2019-03-19T06:03:32.709Z,62.42
2019-03-19T06:06:04.221Z,62.42
2019-03-19T06:08:35.768Z,62.50
2019-03-19T06:11:07.300Z,62.65
2019-03-19T06:13:38.755Z,62.42
2019-03-19T06:16:11.337Z,62.08
2019-03-19T06:18:42.892Z,61.98
2019-03-19T06:21:14.371Z,61.75
2019-03-19T06:23:45.888Z,61.72
2019-03-19T06:26:17.379Z,61.29
2019-03-19T06:28:48.884Z,61.22
2019-03-19T06:31:20.374Z,61.55
2019-03-19T06:33:51.917Z,61.78
2019-03-19T06:36:23.386Z,61.49
2019-03-19T06:38:54.915Z,61.38
2019-03-19T06:41:26.552Z,61.04
2019-03-19T06:43:58.127Z,61.02
2019-03-19T06:46:29.617Z,60.48
2019-03-19T06:49:01.186Z,60.36
2019-03-19T06:51:32.763Z,60.48
2019-03-19T06:54:04.286Z,60.50
2019-03-19T06:56:35.850Z,60.50
2019-03-19T06:59:07.429Z,60.57
2019-03-19T07:01:38.951Z,60.10
2019-03-19T07:04:10.494Z,59.89
2019-03-19T07:06:41.998Z,59.39
2019-03-19T07:09:13.517Z,59.35
2019-03-19T07:11:45.019Z,59.30
2019-03-19T07:14:16.531Z,59.16
2019-03-19T07:16:48.035Z,59.21
2019-03-19T07:19:19.553Z,59.41
2019-03-19T07:21:51.068Z,59.19
2019-03-19T07:24:22.635Z,58.59
2019-03-19T07:26:54.206Z,58.59
2019-03-19T07:29:25.774Z,58.71
2019-03-19T07:31:57.259Z,58.76
2019-03-19T07:34:28.769Z,58.91
2019-03-19T07:37:00.267Z,58.69
2019-03-19T07:39:31.758Z,58.82
2019-03-19T07:42:03.245Z,58.63
2019-03-19T07:44:39.442Z,58.58
2019-03-19T07:47:11.507Z,58.53
2019-03-19T07:49:44.810Z,58.48
2019-03-19T07:52:16.474Z,58.79
2019-03-19T07:54:47.990Z,59.11
2019-03-19T07:57:19.488Z,58.59
2019-03-19T07:59:51.081Z,58.71
2019-03-19T08:02:22.570Z,58.19
2019-03-19T08:04:54.097Z,58.78
2019-03-19T08:07:25.621Z,59.21
2019-03-19T08:09:57.144Z,58.70
2019-03-19T08:12:28.655Z,58.41
2019-03-19T08:15:00.252Z,58.21
2019-03-19T08:17:31.753Z,57.80
2019-03-19T08:20:03.530Z,57.59
2019-03-19T08:22:35.026Z,57.53
2019-03-19T08:25:11.484Z,57.15
2019-03-19T08:27:44.232Z,57.43
2019-03-19T08:30:27.024Z,57.80
2019-03-19T08:33:19.538Z,57.59
2019-03-19T08:36:09.041Z,57.39
2019-03-19T08:38:33.407Z,57.06
2019-03-19T08:41:06.108Z,56.05
2019-03-19T08:43:47.201Z,56.46
2019-03-19T08:46:20.890Z,56.51
2019-03-19T08:49:00.526Z,56.72
2019-03-19T08:55:27.930Z,55.26
2019-03-19T08:57:59.442Z,56.18
2019-03-19T09:00:31.006Z,56.40
2019-03-19T09:03:02.573Z,56.12
2019-03-19T09:05:35.155Z,56.07
2019-03-19T09:08:06.650Z,55.73
2019-03-19T09:10:38.279Z,55.56
2019-03-19T09:13:09.812Z,55.76
2019-03-19T09:15:42.482Z,55.89
2019-03-19T09:18:16.043Z,55.04
2019-03-19T09:20:47.280Z,55.14
2019-03-19T09:23:18.778Z,54.98
2019-03-19T09:25:50.282Z,54.82
2019-03-19T09:28:21.783Z,53.60
2019-03-19T09:30:54.605Z,54.23
2019-03-19T09:33:32.584Z,54.29
2019-03-19T09:36:04.087Z,54.18
2019-03-19T09:38:35.730Z,54.16
2019-03-19T09:41:07.241Z,53.96
2019-03-19T09:43:38.739Z,53.81
2019-03-19T09:46:10.262Z,53.40
2019-03-19T09:48:41.840Z,53.32
2019-03-19T09:51:13.362Z,52.38
2019-03-19T09:53:44.929Z,52.28
2019-03-19T09:56:16.471Z,51.94
2019-03-19T09:58:47.989Z,52.02
2019-03-19T10:01:19.534Z,53.15
2019-03-19T10:03:51.542Z,52.77
2019-03-19T10:06:23.209Z,52.21
2019-03-19T10:08:54.727Z,50.77
2019-03-19T10:11:26.384Z,50.62
2019-03-19T10:13:57.911Z,50.95
2019-03-19T10:16:29.505Z,51.44
2019-03-19T10:19:01.157Z,50.16
2019-03-19T10:21:32.685Z,49.95
2019-03-19T10:24:04.246Z,50.06
2019-03-19T10:26:35.834Z,51.14
2019-03-19T10:29:07.331Z,50.76
2019-03-19T10:31:38.963Z,50.58
2019-03-19T10:34:10.476Z,50.36
2019-03-19T10:36:42.017Z,50.37
2019-03-19T10:39:13.674Z,50.57
2019-03-19T10:41:45.235Z,50.00
2019-03-19T10:44:16.823Z,49.80
2019-03-19T10:46:48.354Z,50.02
2019-03-19T10:49:19.850Z,49.19
2019-03-19T10:51:51.345Z,48.60
2019-03-19T10:54:22.859Z,50.21
2019-03-19T10:56:54.497Z,51.12
2019-03-19T10:59:26.318Z,51.24
2019-03-19T11:01:57.833Z,50.64
2019-03-19T11:04:29.409Z,49.70
2019-03-19T11:07:00.917Z,49.15
2019-03-19T11:09:32.494Z,48.24
2019-03-19T11:12:04.004Z,48.02
2019-03-19T11:14:35.584Z,48.13
2019-03-19T11:17:07.161Z,47.86
2019-03-19T11:19:38.737Z,48.31
2019-03-19T11:22:10.228Z,49.25
2019-03-19T11:24:41.818Z,48.96
2019-03-19T11:27:13.376Z,49.59
2019-03-19T11:29:44.876Z,50.58
2019-03-19T11:32:16.378Z,49.83
2019-03-19T11:34:47.900Z,49.53
2019-03-19T11:37:19.416Z,49.26
2019-03-19T11:39:50.917Z,48.83
2019-03-19T11:42:22.449Z,48.69
2019-03-19T11:44:54.030Z,50.02
2019-03-19T11:47:25.548Z,48.79
2019-03-19T11:49:57.143Z,47.75
2019-03-19T11:52:29.868Z,46.39
2019-03-19T11:55:01.393Z,46.58
2019-03-19T11:57:34.182Z,47.50
2019-03-19T12:00:11.674Z,47.67
2019-03-19T12:02:43.431Z,46.31
2019-03-19T12:05:14.945Z,44.79
2019-03-19T12:07:46.443Z,45.08
2019-03-19T12:10:17.969Z,45.32
2019-03-19T12:12:49.529Z,43.97
2019-03-19T12:15:21.038Z,43.36
2019-03-19T12:17:52.629Z,43.29
2019-03-19T12:20:25.264Z,43.82
2019-03-19T12:22:56.853Z,43.65
2019-03-19T12:25:28.374Z,43.70
2019-03-19T12:27:59.878Z,44.33
2019-03-19T12:30:31.375Z,44.75
2019-03-19T12:33:02.894Z,44.42
2019-03-19T12:35:34.378Z,45.01
2019-03-19T12:38:05.944Z,44.79
2019-03-19T12:40:37.739Z,44.60
2019-03-19T12:43:09.311Z,44.98
2019-03-19T12:45:40.808Z,44.96
2019-03-19T12:48:12.319Z,44.36
2019-03-19T12:50:43.848Z,44.68
2019-03-19T12:53:15.429Z,44.12
2019-03-19T12:55:47.004Z,44.05
2019-03-19T12:58:18.592Z,44.37
2019-03-19T13:00:50.085Z,43.89
2019-03-19T13:03:21.664Z,44.16
2019-03-19T13:05:53.175Z,43.99
2019-03-19T13:08:24.679Z,43.89
2019-03-19T13:10:56.174Z,44.61
2019-03-19T13:13:27.678Z,44.24
2019-03-19T13:15:59.201Z,44.58
2019-03-19T13:18:30.810Z,44.42
2019-03-19T13:21:02.303Z,44.08
2019-03-19T13:23:33.785Z,44.56
2019-03-19T13:26:05.300Z,44.61
2019-03-19T13:28:36.817Z,44.13
2019-03-19T13:31:08.335Z,43.21
2019-03-19T13:33:39.909Z,42.32
2019-03-19T13:36:11.419Z,42.62
2019-03-19T13:38:42.930Z,42.52
2019-03-19T13:41:15.239Z,42.76
2019-03-19T13:43:46.728Z,42.19
2019-03-19T13:46:18.242Z,42.37
2019-03-19T13:48:49.822Z,42.41
2019-03-19T13:51:21.330Z,42.51
2019-03-19T13:53:52.891Z,42.25
2019-03-19T13:56:24.402Z,43.04
2019-03-19T13:58:55.902Z,43.31
2019-03-19T14:01:27.482Z,43.13
2019-03-19T14:04:00.623Z,42.15
2019-03-19T14:06:32.267Z,42.48
2019-03-19T14:09:05.364Z,42.22
2019-03-19T14:11:36.896Z,42.24
2019-03-19T14:14:08.475Z,41.60
2019-03-19T14:16:40.040Z,41.62
2019-03-19T14:19:17.584Z,41.54
2019-03-19T14:21:57.999Z,41.92
2019-03-19T14:24:29.171Z,41.88
2019-03-19T14:27:03.737Z,42.40
2019-03-19T14:29:35.314Z,41.68
2019-03-19T14:32:06.947Z,40.99
2019-03-19T14:34:38.517Z,40.74
2019-03-19T14:37:12.390Z,41.39
2019-03-19T14:39:43.245Z,41.49
2019-03-19T14:42:14.750Z,41.47
2019-03-19T14:44:46.267Z,41.67
2019-03-19T14:47:17.782Z,40.93
2019-03-19T14:49:50.037Z,40.59
2019-03-19T14:52:21.599Z,40.33
2019-03-19T14:54:53.150Z,39.73
2019-03-19T14:57:24.663Z,39.02
2019-03-19T14:59:56.247Z,39.22
2019-03-19T15:02:27.812Z,39.35
2019-03-19T15:04:59.326Z,39.44
2019-03-19T15:07:30.836Z,39.12
2019-03-19T15:10:02.324Z,39.31
2019-03-19T15:12:33.923Z,39.12
2019-03-19T15:15:09.515Z,40.29
2019-03-19T15:17:41.028Z,39.76
2019-03-19T15:20:20.634Z,41.00
2019-03-19T15:22:52.295Z,43.16
2019-03-19T15:25:23.909Z,43.78
2019-03-19T15:27:55.486Z,44.78
2019-03-19T15:30:26.968Z,44.49
2019-03-19T15:32:58.532Z,45.20
2019-03-19T15:35:30.047Z,44.43
2019-03-19T15:38:01.635Z,43.93
2019-03-19T15:40:33.210Z,43.55
2019-03-19T15:43:04.766Z,44.13
2019-03-19T15:45:36.263Z,43.90
2019-03-19T15:48:07.810Z,43.85
2019-03-19T15:50:39.389Z,44.30
2019-03-19T15:53:10.956Z,44.42
2019-03-19T15:55:42.455Z,45.15
2019-03-19T15:58:14.018Z,46.06
2019-03-19T16:00:45.639Z,47.84
2019-03-19T16:03:17.188Z,52.10
2019-03-19T16:05:48.695Z,56.53
2019-03-19T16:08:20.387Z,59.91
2019-03-19T16:10:51.879Z,60.98
2019-03-19T16:13:23.389Z,61.17
2019-03-19T16:15:54.904Z,62.45
2019-03-19T16:18:26.414Z,62.53
2019-03-19T16:20:59.155Z,62.49
2019-03-19T16:23:30.729Z,61.92
2019-03-19T16:26:02.272Z,61.35
2019-03-19T16:28:33.811Z,59.16
2019-03-19T16:31:05.397Z,58.63
2019-03-19T16:33:36.908Z,58.33
2019-03-19T16:36:08.484Z,57.41
2019-03-19T16:38:40.062Z,56.20
2019-03-19T16:41:11.548Z,55.47
2019-03-19T16:43:43.048Z,55.47
2019-03-19T16:46:14.619Z,55.43
2019-03-19T16:48:49.139Z,54.74
2019-03-19T16:51:20.646Z,55.34
2019-03-19T16:53:52.153Z,56.70
2019-03-19T16:56:23.649Z,57.30
2019-03-19T16:58:55.212Z,58.25
2019-03-19T17:01:26.794Z,58.04
2019-03-19T17:03:58.315Z,57.58
2019-03-19T17:06:29.831Z,57.25
2019-03-19T17:09:01.384Z,57.39
2019-03-19T17:11:34.573Z,57.18
2019-03-19T17:14:06.081Z,57.03
2019-03-19T17:16:37.663Z,56.86
2019-03-19T17:19:09.259Z,57.39
2019-03-19T17:21:40.917Z,57.40
2019-03-19T17:24:12.485Z,57.88
2019-03-19T17:26:44.004Z,59.06
2019-03-19T17:29:15.554Z,59.22
2019-03-19T17:31:47.045Z,58.57
2019-03-19T17:34:18.621Z,58.05
2019-03-19T17:36:50.116Z,58.66
2019-03-19T17:39:21.754Z,58.61
2019-03-19T17:41:53.268Z,58.62
2019-03-19T17:44:24.842Z,59.47
2019-03-19T17:46:56.425Z,59.46
2019-03-19T17:49:28.075Z,59.12
2019-03-19T17:51:59.642Z,58.55
2019-03-19T17:54:31.206Z,58.39
2019-03-19T17:57:02.715Z,57.59
2019-03-19T17:59:34.224Z,57.36
2019-03-19T18:02:05.792Z,56.91
2019-03-19T18:04:37.302Z,56.75
2019-03-19T18:07:08.889Z,56.39
2019-03-19T18:09:40.392Z,56.23
2019-03-19T18:12:12.011Z,56.32
2019-03-19T18:14:43.551Z,56.26
2019-03-19T18:17:15.054Z,56.61
2019-03-19T18:19:46.812Z,56.71
2019-03-19T18:22:18.324Z,56.69
2019-03-19T18:24:49.914Z,56.42
2019-03-19T18:27:21.407Z,56.68
2019-03-19T18:29:52.914Z,56.64
2019-03-19T18:32:34.665Z,56.65
2019-03-19T18:34:57.800Z,56.64
2019-03-19T18:37:29.303Z,56.78
2019-03-19T18:40:00.848Z,57.83
2019-03-19T18:42:32.533Z,59.63
2019-03-19T18:45:05.577Z,61.56
2019-03-19T18:47:37.143Z,63.28
2019-03-19T18:50:18.224Z,63.23
2019-03-19T18:52:49.740Z,62.93
2019-03-19T18:55:21.256Z,62.90
2019-03-19T18:57:52.755Z,63.18
2019-03-19T19:00:25.103Z,63.31
2019-03-19T19:02:56.605Z,63.50
2019-03-19T19:05:28.118Z,63.70
2019-03-19T19:07:59.620Z,64.18
2019-03-19T19:10:31.284Z,64.13
2019-03-19T19:13:02.871Z,63.89
2019-03-19T19:15:34.449Z,63.61
2019-03-19T19:18:06.070Z,63.82
2019-03-19T19:20:37.579Z,63.40
2019-03-19T19:23:09.094Z,63.16
2019-03-19T19:25:40.735Z,63.03
2019-03-19T19:28:12.240Z,63.14
2019-03-19T19:30:43.767Z,63.34
2019-03-19T19:33:15.274Z,63.27
2019-03-19T19:35:46.764Z,63.09
2019-03-19T19:38:18.288Z,62.97
2019-03-19T19:40:51.528Z,63.03
2019-03-19T19:43:23.048Z,63.32
2019-03-19T19:45:55.711Z,63.49
2019-03-19T19:48:27.237Z,63.47
2019-03-19T19:51:00.491Z,63.66
2019-03-19T19:53:32.016Z,64.14
2019-03-19T19:56:03.817Z,64.39
2019-03-19T19:58:35.400Z,64.24
2019-03-19T20:01:06.912Z,64.20
2019-03-19T20:03:38.846Z,64.37
2019-03-19T20:06:14.031Z,64.03
2019-03-19T20:08:45.547Z,63.70
2019-03-19T20:11:17.172Z,63.64
2019-03-19T20:13:48.680Z,63.39
2019-03-19T20:16:20.181Z,63.44
2019-03-19T20:18:51.717Z,63.29
2019-03-19T20:21:23.278Z,63.31
2019-03-19T20:23:55.243Z,63.40
2019-03-19T20:26:26.944Z,63.85
2019-03-19T20:28:58.540Z,64.06
2019-03-19T20:31:30.104Z,64.08
2019-03-19T20:34:01.690Z,64.23
2019-03-19T20:36:33.225Z,64.34
2019-03-19T20:39:07.594Z,64.49
2019-03-19T20:41:39.242Z,64.67
2019-03-19T20:44:11.965Z,65.05
2019-03-19T20:46:44.781Z,65.22
2019-03-19T20:49:16.568Z,65.02
2019-03-19T20:51:48.159Z,64.97
2019-03-19T20:54:19.902Z,64.91
2019-03-19T20:56:51.620Z,65.04
2019-03-19T20:59:23.122Z,65.55
2019-03-19T21:01:54.695Z,65.37
2019-03-19T21:04:28.954Z,65.30
2019-03-19T21:06:59.610Z,65.45
2019-03-19T21:09:31.116Z,65.77
2019-03-19T21:12:02.634Z,65.84
2019-03-19T21:14:34.306Z,65.61
2019-03-19T21:17:07.769Z,65.81
2019-03-19T21:19:39.361Z,66.00
2019-03-19T21:22:11.000Z,66.08
2019-03-19T21:24:42.559Z,66.10
2019-03-19T21:27:15.390Z,66.05
2019-03-19T21:29:46.970Z,65.83
2019-03-19T21:32:18.555Z,65.71
2019-03-19T21:34:50.216Z,65.78
2019-03-19T21:37:21.731Z,65.98
2019-03-19T21:39:53.310Z,66.24
2019-03-19T21:42:24.822Z,66.27
2019-03-19T21:44:56.342Z,67.04
2019-03-19T21:47:27.886Z,67.31
2019-03-19T21:49:59.401Z,67.36
2019-03-19T21:52:30.969Z,67.17
2019-03-19T21:55:02.666Z,67.33
2019-03-19T21:57:34.229Z,67.78
2019-03-19T22:00:19.492Z,67.73
2019-03-19T22:02:51.162Z,67.63
2019-03-19T22:05:22.748Z,67.55
2019-03-19T22:07:54.245Z,67.53
2019-03-19T22:10:25.836Z,67.87
2019-03-19T22:12:57.618Z,67.96
2019-03-19T22:15:29.238Z,68.04
2019-03-19T22:18:00.781Z,67.90
2019-03-19T22:20:34.554Z,67.99
2019-03-19T22:23:06.140Z,68.06
2019-03-19T22:25:39.380Z,68.12
2019-03-19T22:28:10.964Z,68.51
2019-03-19T22:30:42.473Z,68.32
2019-03-19T22:33:14.063Z,68.21
2019-03-19T22:35:45.580Z,68.74
2019-03-19T22:38:17.102Z,68.86
2019-03-19T22:40:48.891Z,69.47
2019-03-19T22:43:20.671Z,69.69
2019-03-19T22:45:52.167Z,69.36
2019-03-19T22:48:25.325Z,69.06
2019-03-19T22:50:56.968Z,68.74
2019-03-19T22:53:28.503Z,68.71
2019-03-19T22:56:01.581Z,68.69
2019-03-19T22:58:33.119Z,68.79
2019-03-19T23:01:06.000Z,68.85
2019-03-19T23:03:39.190Z,68.91
2019-03-19T23:06:11.756Z,69.07
2019-03-19T23:08:43.324Z,69.16
2019-03-19T23:11:14.826Z,69.49
2019-03-19T23:13:46.349Z,69.22
2019-03-19T23:16:18.011Z,69.59
2019-03-19T23:18:49.534Z,69.35
2019-03-19T23:21:21.035Z,69.35
2019-03-19T23:23:52.608Z,69.59
2019-03-19T23:26:24.181Z,69.37
2019-03-19T23:28:55.771Z,69.35
2019-03-19T23:31:27.296Z,69.40
2019-03-19T23:33:58.894Z,69.77
2019-03-19T23:36:30.483Z,69.67
2019-03-19T23:39:02.001Z,70.04
2019-03-19T23:41:35.362Z,69.89
2019-03-19T23:44:07.827Z,69.48
2019-03-19T23:46:39.339Z,69.44
2019-03-19T23:49:10.903Z,69.78
2019-03-19T23:51:42.480Z,69.69
2019-03-19T23:54:14.060Z,69.95
2019-03-19T23:56:45.677Z,69.89
2019-03-19T23:59:17.262Z,70.62
